Time;durP1;ratioP1;P1;durP2;ratioP2;P2;SDS_P1;SDS_P2;PMS_P1;PMS_P2;Temp;Humidity;BMP_temperature;BMP_pressure;BME280_temperature;BME280_humidity;BME280_pressure;Samples;Min_cycle;Max_cycle;Signal;HPM_P1;HPM_P2
2023/08/27 00:01:11;;;;;;;1.60;1.50;;;24.30;46.80;;;;;;5014010;28;20228;-68
2023/08/27 00:03:36;;;;;;;1.50;1.40;;;24.40;47.00;;;;;;5021969;28;20226;-68
2023/08/27 00:06:02;;;;;;;1.70;1.60;;;24.30;46.80;;;;;;5012839;28;20533;-68
2023/08/27 00:08:28;;;;;;;1.60;1.50;;;24.30;46.80;;;;;;5016281;28;25904;-68
2023/08/27 00:10:58;;;;;;;1.50;1.40;;;24.30;46.80;;;;;;5014536;28;20210;-68
2023/08/27 00:13:23;;;;;;;1.50;1.40;;;24.30;46.90;;;;;;5018167;28;20495;-68
2023/08/27 00:15:49;;;;;;;1.60;1.50;;;24.30;46.80;;;;;;5019530;28;20574;-68
2023/08/27 00:18:15;;;;;;;1.53;1.43;;;24.30;46.80;;;;;;5019044;28;20226;-68
2023/08/27 00:20:41;;;;;;;1.47;1.37;;;24.30;46.90;;;;;;5017190;28;20257;-68
2023/08/27 00:23:08;;;;;;;1.80;1.57;;;24.30;46.80;;;;;;5020384;28;20234;-68
2023/08/27 00:25:34;;;;;;;1.70;1.60;;;24.30;46.90;;;;;;5017864;28;20470;-68
2023/08/27 00:28:00;;;;;;;1.70;1.60;;;24.30;46.80;;;;;;5015839;28;20452;-68
2023/08/27 00:30:25;;;;;;;1.50;1.40;;;24.30;46.90;;;;;;5016713;28;20463;-68
2023/08/27 00:32:51;;;;;;;1.50;1.40;;;24.30;46.90;;;;;;5017517;28;20220;-68
2023/08/27 00:35:16;;;;;;;1.60;1.50;;;24.30;46.90;;;;;;5018872;28;20250;-69
2023/08/27 00:37:42;;;;;;;1.77;1.53;;;24.30;46.90;;;;;;5017684;28;20241;-68
2023/08/27 00:40:08;;;;;;;1.50;1.40;;;24.30;46.90;;;;;;5014632;28;20690;-68
2023/08/27 00:42:34;;;;;;;1.60;1.50;;;24.30;46.90;;;;;;5016840;28;20262;-67
2023/08/27 00:44:59;;;;;;;1.50;1.40;;;24.30;46.80;;;;;;5016829;28;20646;-68
2023/08/27 00:47:25;;;;;;;1.53;1.43;;;24.30;46.90;;;;;;5017483;28;20618;-68
2023/08/27 00:49:51;;;;;;;1.83;1.73;;;24.30;46.80;;;;;;5015871;28;20728;-67
2023/08/27 00:52:19;;;;;;;1.43;1.33;;;24.30;46.90;;;;;;5012802;28;20748;-68
2023/08/27 00:54:45;;;;;;;1.60;1.50;;;24.30;46.80;;;;;;5017397;28;20253;-68
2023/08/27 00:57:12;;;;;;;1.63;1.53;;;24.30;46.80;;;;;;5017597;28;20472;-68
2023/08/27 00:59:37;;;;;;;1.83;1.30;;;24.30;46.90;;;;;;5021374;28;20542;-68
2023/08/27 01:02:04;;;;;;;1.73;1.40;;;24.30;46.90;;;;;;5014957;28;20444;-68
2023/08/27 01:04:30;;;;;;;1.93;1.83;;;24.30;46.80;;;;;;5019260;28;20292;-68
2023/08/27 01:07:04;;;;;;;1.60;1.50;;;24.30;46.90;;;;;;5016742;28;21565;-68
2023/08/27 01:09:32;;;;;;;1.50;1.40;;;24.30;46.80;;;;;;5016972;28;20245;-67
2023/08/27 01:12:22;;;;;;;1.60;1.50;;;24.30;46.80;;;;;;5019552;28;20467;-68
2023/08/27 01:14:49;;;;;;;1.57;1.47;;;24.30;46.90;;;;;;5018121;28;20460;-68
2023/08/27 01:17:18;;;;;;;1.77;1.67;;;24.30;46.80;;;;;;5017841;28;20458;-68
2023/08/27 01:19:45;;;;;;;1.73;1.63;;;24.30;46.90;;;;;;5014808;28;20678;-68
2023/08/27 01:22:10;;;;;;;1.50;1.40;;;24.30;46.80;;;;;;5015197;28;20545;-68
2023/08/27 01:24:36;;;;;;;1.50;1.40;;;24.30;46.90;;;;;;5020034;28;20460;-68
2023/08/27 01:27:16;;;;;;;1.50;1.40;;;24.30;47.00;;;;;;5019026;28;20438;-68
2023/08/27 01:30:12;;;;;;;1.70;1.60;;;24.30;46.80;;;;;;5017347;28;20225;-67
2023/08/27 01:33:20;;;;;;;1.50;1.40;;;24.30;46.80;;;;;;5017241;28;21153;-68
2023/08/27 01:35:46;;;;;;;1.40;1.30;;;24.30;46.80;;;;;;4996652;28;20499;-68
2023/08/27 01:38:12;;;;;;;1.70;1.60;;;24.30;46.90;;;;;;5001635;28;20543;-68
2023/08/27 01:40:39;;;;;;;1.60;1.50;;;24.30;46.80;;;;;;4999082;28;20706;-68
2023/08/27 01:43:04;;;;;;;1.60;1.50;;;24.20;46.70;;;;;;4994628;28;20513;-67
2023/08/27 01:45:30;;;;;;;1.80;1.70;;;24.20;46.70;;;;;;4997282;28;20457;-68
2023/08/27 01:47:55;;;;;;;2.13;1.50;;;24.20;46.70;;;;;;4995345;28;20307;-68
2023/08/27 01:50:21;;;;;;;1.50;1.40;;;24.30;46.80;;;;;;4993532;28;20215;-68
2023/08/27 01:52:46;;;;;;;1.47;1.37;;;24.30;46.80;;;;;;4993375;28;22066;-68
2023/08/27 01:55:12;;;;;;;1.60;1.50;;;24.20;46.70;;;;;;4993624;28;20314;-67
2023/08/27 01:57:37;;;;;;;1.60;1.50;;;24.30;46.80;;;;;;4993924;28;20272;-67
2023/08/27 02:00:08;;;;;;;1.60;1.50;;;24.20;46.70;;;;;;4995724;28;20246;-68
2023/08/27 02:02:35;;;;;;;1.63;1.53;;;24.20;46.70;;;;;;4998232;28;20341;-68
2023/08/27 02:05:00;;;;;;;1.63;1.53;;;24.30;46.80;;;;;;4995084;28;20988;-68
2023/08/27 02:07:26;;;;;;;1.50;1.40;;;24.20;46.70;;;;;;4996144;28;20460;-68
2023/08/27 02:09:51;;;;;;;1.73;1.63;;;24.30;46.80;;;;;;5000333;28;20211;-67
2023/08/27 02:12:17;;;;;;;1.90;1.80;;;24.20;46.70;;;;;;4995174;28;20227;-68
2023/08/27 02:14:43;;;;;;;1.50;1.40;;;24.20;46.70;;;;;;4998085;28;20804;-68
2023/08/27 02:17:08;;;;;;;1.40;1.30;;;24.20;46.70;;;;;;4997606;28;20223;-69
2023/08/27 02:19:34;;;;;;;2.60;1.33;;;24.20;46.70;;;;;;4996610;28;20789;-67
2023/08/27 02:22:01;;;;;;;1.53;1.43;;;24.20;46.60;;;;;;4994088;28;20282;-67
2023/08/27 02:24:26;;;;;;;2.17;1.53;;;24.20;46.70;;;;;;4997757;28;20278;-68
2023/08/27 02:26:52;;;;;;;3.20;1.50;;;24.20;46.70;;;;;;5000811;28;20448;-68
2023/08/27 02:29:17;;;;;;;1.77;1.67;;;24.20;46.70;;;;;;4996971;28;20781;-68
2023/08/27 02:31:43;;;;;;;1.60;1.50;;;24.20;46.70;;;;;;4993992;28;20223;-68
2023/08/27 02:34:08;;;;;;;1.40;1.30;;;24.20;46.70;;;;;;5001179;28;20241;-70
2023/08/27 02:36:34;;;;;;;1.67;1.57;;;24.30;47.00;;;;;;5017694;28;20234;-68
2023/08/27 02:38:59;;;;;;;1.47;1.37;;;24.20;46.70;;;;;;5016389;28;20222;-67
2023/08/27 02:41:25;;;;;;;1.43;1.33;;;24.20;46.60;;;;;;5016383;28;20319;-68
2023/08/27 02:43:50;;;;;;;1.50;1.40;;;24.20;46.60;;;;;;5017379;28;20227;-68
2023/08/27 02:46:16;;;;;;;1.97;1.30;;;24.20;46.60;;;;;;5015469;28;20700;-68
2023/08/27 02:48:41;;;;;;;2.40;1.40;;;24.20;46.60;;;;;;5015601;28;20226;-68
2023/08/27 02:51:07;;;;;;;1.63;1.53;;;24.20;46.60;;;;;;5018202;28;20670;-68
2023/08/27 02:53:33;;;;;;;1.50;1.40;;;24.20;46.60;;;;;;5017884;28;20312;-67
2023/08/27 02:55:58;;;;;;;1.50;1.40;;;24.20;46.60;;;;;;5015982;28;20302;-68
2023/08/27 02:58:24;;;;;;;1.47;1.37;;;24.20;46.60;;;;;;5016340;28;20217;-68
2023/08/27 03:00:49;;;;;;;1.70;1.60;;;24.20;46.60;;;;;;5016639;28;20399;-66
2023/08/27 03:03:14;;;;;;;1.53;1.43;;;24.20;46.60;;;;;;5016216;28;20234;-67
2023/08/27 03:05:40;;;;;;;1.63;1.53;;;24.20;46.60;;;;;;5016833;28;20664;-68
2023/08/27 03:08:06;;;;;;;1.50;1.30;;;24.20;46.60;;;;;;5017345;28;20693;-68
2023/08/27 03:10:31;;;;;;;1.30;1.20;;;24.20;47.40;;;;;;5015854;28;20218;-67
2023/08/27 03:12:57;;;;;;;1.40;1.30;;;24.20;46.60;;;;;;5014638;28;20224;-67
2023/08/27 03:15:22;;;;;;;1.70;1.60;;;24.20;46.60;;;;;;5018016;28;20230;-68
2023/08/27 03:17:48;;;;;;;1.60;1.50;;;24.20;46.60;;;;;;5016160;28;20746;-67
2023/08/27 03:20:14;;;;;;;1.60;1.50;;;24.20;46.50;;;;;;5016314;28;20226;-68
2023/08/27 03:22:39;;;;;;;1.60;1.47;;;24.20;46.60;;;;;;5016906;28;20223;-68
2023/08/27 03:25:05;;;;;;;1.77;1.67;;;24.20;46.60;;;;;;5017754;28;20778;-68
2023/08/27 03:27:36;;;;;;;2.20;1.80;;;24.20;46.50;;;;;;5013015;28;20260;-68
2023/08/27 03:30:03;;;;;;;1.50;1.40;;;24.20;46.50;;;;;;5018259;28;20230;-68
2023/08/27 03:32:29;;;;;;;1.70;1.60;;;24.20;46.60;;;;;;5016405;28;20452;-69
2023/08/27 03:34:55;;;;;;;1.30;1.20;;;24.20;46.50;;;;;;5012244;28;20474;-68
2023/08/27 03:37:20;;;;;;;1.40;1.30;;;24.20;46.50;;;;;;5015578;28;20237;-67
2023/08/27 03:39:46;;;;;;;1.30;1.20;;;24.20;46.50;;;;;;5015527;28;20222;-67
2023/08/27 03:42:12;;;;;;;1.57;1.47;;;24.20;46.50;;;;;;5014460;28;20276;-67
2023/08/27 03:44:37;;;;;;;1.57;1.47;;;24.20;46.50;;;;;;5014440;28;20230;-67
2023/08/27 03:47:04;;;;;;;1.50;1.40;;;24.20;46.50;;;;;;5013979;28;20571;-68
2023/08/27 03:49:29;;;;;;;1.70;1.60;;;24.20;46.60;;;;;;5017713;28;20221;-67
2023/08/27 03:51:55;;;;;;;1.40;1.30;;;24.20;46.60;;;;;;5014228;28;20509;-67
2023/08/27 03:54:20;;;;;;;1.80;1.70;;;24.20;46.60;;;;;;5012091;28;20280;-68
2023/08/27 03:56:46;;;;;;;2.17;1.70;;;24.10;46.50;;;;;;5015418;28;20238;-67
2023/08/27 03:59:12;;;;;;;1.60;1.50;;;24.10;46.50;;;;;;5014441;28;22168;-67
2023/08/27 04:01:37;;;;;;;1.33;1.23;;;24.20;47.20;;;;;;5017240;28;20218;-68
2023/08/27 04:04:03;;;;;;;1.67;1.57;;;24.20;46.50;;;;;;5014670;28;20240;-67
2023/08/27 04:06:29;;;;;;;1.30;1.20;;;24.10;46.40;;;;;;5013147;28;20225;-68
2023/08/27 04:08:54;;;;;;;1.57;1.47;;;24.20;46.50;;;;;;5016468;28;20297;-69
2023/08/27 04:11:20;;;;;;;1.67;1.50;;;24.20;46.50;;;;;;5013460;28;21421;-68
2023/08/27 04:13:45;;;;;;;1.50;1.40;;;24.10;46.50;;;;;;5013038;28;20252;-68
2023/08/27 04:16:12;;;;;;;1.43;1.30;;;24.20;46.50;;;;;;5017323;28;20238;-68
2023/08/27 04:18:37;;;;;;;1.40;1.30;;;24.10;47.20;;;;;;5018257;28;20313;-67
2023/08/27 04:21:03;;;;;;;1.30;1.20;;;24.10;46.50;;;;;;5015389;28;20470;-67
2023/08/27 04:23:29;;;;;;;1.40;1.30;;;24.10;46.40;;;;;;5014232;28;20232;-67
2023/08/27 04:25:55;;;;;;;1.70;1.60;;;24.20;46.50;;;;;;5014342;28;20804;-67
2023/08/27 04:28:21;;;;;;;1.50;1.40;;;24.10;46.40;;;;;;5015996;28;20513;-67
2023/08/27 04:30:51;;;;;;;1.57;1.47;;;24.20;46.50;;;;;;5015486;28;20253;-67
2023/08/27 04:33:17;;;;;;;1.70;1.50;;;24.10;46.50;;;;;;5015060;28;20997;-67
2023/08/27 04:35:44;;;;;;;1.30;1.20;;;24.20;46.50;;;;;;5013445;28;20498;-68
2023/08/27 04:38:10;;;;;;;1.40;1.30;;;24.20;46.60;;;;;;5017045;28;20970;-67
2023/08/27 04:40:36;;;;;;;1.20;1.10;;;24.10;46.50;;;;;;5018550;28;20471;-68
2023/08/27 04:43:02;;;;;;;1.50;1.40;;;24.10;46.40;;;;;;5031219;28;20458;-67
2023/08/27 04:45:28;;;;;;;1.40;1.30;;;24.20;46.50;;;;;;5012867;28;20943;-67
2023/08/27 04:47:54;;;;;;;1.60;1.50;;;24.20;46.50;;;;;;5015150;28;20472;-67
2023/08/27 04:50:19;;;;;;;1.40;1.30;;;24.20;46.50;;;;;;5016690;28;20466;-68
2023/08/27 04:52:45;;;;;;;1.10;1.10;;;24.20;46.50;;;;;;5012651;28;20226;-67
2023/08/27 04:55:11;;;;;;;1.30;1.20;;;24.10;46.40;;;;;;5014427;28;20235;-68
2023/08/27 04:57:37;;;;;;;1.90;1.37;;;24.20;46.50;;;;;;5015646;28;20218;-67
2023/08/27 05:00:04;;;;;;;1.63;1.53;;;24.20;46.50;;;;;;5013637;28;20474;-67
2023/08/27 05:02:30;;;;;;;1.30;1.20;;;24.20;46.50;;;;;;5013420;28;20533;-67
2023/08/27 05:04:55;;;;;;;1.30;1.20;;;24.20;46.50;;;;;;5012346;28;20463;-67
2023/08/27 05:07:21;;;;;;;1.53;1.20;;;24.10;46.40;;;;;;5013418;28;20732;-67
2023/08/27 05:09:46;;;;;;;3.13;1.63;;;24.20;46.50;;;;;;5013507;28;20264;-67
2023/08/27 05:12:12;;;;;;;1.40;1.30;;;24.20;46.50;;;;;;5013777;28;20237;-68
2023/08/27 05:14:38;;;;;;;1.40;1.30;;;24.20;46.50;;;;;;5014211;28;20226;-68
2023/08/27 05:17:03;;;;;;;1.40;1.30;;;24.20;46.50;;;;;;5017053;28;20321;-68
2023/08/27 05:19:29;;;;;;;1.40;1.30;;;24.10;46.50;;;;;;5013365;28;20257;-67
2023/08/27 05:21:54;;;;;;;1.67;1.30;;;24.20;46.50;;;;;;5010835;28;20260;-67
2023/08/27 05:24:20;;;;;;;1.20;1.10;;;24.20;46.50;;;;;;5016907;28;20222;-69
2023/08/27 05:26:46;;;;;;;1.60;1.50;;;24.20;46.50;;;;;;5013498;28;20225;-69
2023/08/27 05:29:12;;;;;;;1.70;1.60;;;24.20;46.50;;;;;;5013882;28;20218;-69
2023/08/27 05:31:38;;;;;;;1.30;1.20;;;24.20;46.60;;;;;;5017916;28;20589;-71
2023/08/27 05:34:03;;;;;;;2.10;1.20;;;24.10;46.50;;;;;;5013927;28;20237;-69
2023/08/27 05:36:29;;;;;;;1.43;1.33;;;24.20;46.50;;;;;;5018173;28;20238;-69
2023/08/27 05:38:54;;;;;;;1.30;1.20;;;24.20;46.50;;;;;;5020349;28;20268;-69
2023/08/27 05:41:20;;;;;;;1.33;1.23;;;24.20;46.50;;;;;;5018912;28;20222;-68
2023/08/27 05:43:47;;;;;;;1.30;1.20;;;24.20;46.50;;;;;;5020421;28;20226;-68
2023/08/27 05:46:13;;;;;;;1.30;1.20;;;24.10;46.50;;;;;;5021801;28;20682;-68
2023/08/27 05:48:38;;;;;;;2.40;1.40;;;24.10;46.40;;;;;;5020110;28;20463;-68
2023/08/27 05:51:04;;;;;;;1.23;1.13;;;24.10;46.50;;;;;;5021342;28;20273;-68
2023/08/27 05:53:29;;;;;;;1.50;1.40;;;24.10;46.50;;;;;;5023898;28;20244;-68
2023/08/27 05:55:55;;;;;;;1.40;1.30;;;24.10;46.60;;;;;;5019157;28;20269;-68
2023/08/27 05:58:20;;;;;;;3.30;1.40;;;24.10;46.60;;;;;;5019695;28;20218;-73
2023/08/27 06:00:46;;;;;;;1.27;1.17;;;24.10;46.60;;;;;;5027787;28;20313;-69
2023/08/27 06:03:11;;;;;;;1.40;1.30;;;24.10;46.60;;;;;;5030592;28;20240;-69
2023/08/27 06:05:38;;;;;;;1.50;1.40;;;24.10;46.60;;;;;;5032318;28;20589;-69
2023/08/27 06:08:04;;;;;;;1.20;1.10;;;24.20;46.60;;;;;;5033593;28;20228;-69
2023/08/27 06:10:30;;;;;;;1.13;1.10;;;24.10;46.50;;;;;;5031349;28;20458;-69
2023/08/27 06:12:57;;;;;;;1.20;1.10;;;24.20;46.60;;;;;;5032672;28;20222;-68
2023/08/27 06:15:23;;;;;;;1.27;1.17;;;24.10;46.60;;;;;;5034889;28;20488;-74
2023/08/27 06:17:49;;;;;;;1.40;1.30;;;24.10;46.60;;;;;;5030640;28;20458;-74
2023/08/27 06:20:14;;;;;;;1.17;1.10;;;24.20;46.70;;;;;;5033874;28;20914;-77
2023/08/27 06:22:40;;;;;;;1.00;1.00;;;24.20;46.60;;;;;;5033531;28;20231;-67
2023/08/27 06:25:07;;;;;;;1.10;1.10;;;24.10;46.50;;;;;;5036752;28;20670;-72
2023/08/27 06:27:32;;;;;;;1.50;1.40;;;24.10;46.50;;;;;;5030633;28;20253;-69
2023/08/27 06:29:58;;;;;;;1.30;1.20;;;24.20;46.50;;;;;;5029408;28;20540;-69
2023/08/27 06:32:25;;;;;;;1.00;1.00;;;24.20;46.50;;;;;;5026501;28;20247;-71
2023/08/27 06:34:51;;;;;;;2.50;1.40;;;24.20;46.50;;;;;;5026088;28;20266;-74
2023/08/27 06:37:17;;;;;;;1.23;1.13;;;24.20;46.40;;;;;;5031866;28;20892;-72
2023/08/27 06:39:42;;;;;;;1.50;1.40;;;24.20;46.50;;;;;;5033489;28;20214;-68
2023/08/27 06:42:08;;;;;;;4.10;1.20;;;24.20;46.50;;;;;;5031838;28;20681;-69
2023/08/27 06:44:33;;;;;;;1.23;1.13;;;24.20;46.40;;;;;;5027213;28;20254;-71
2023/08/27 06:46:59;;;;;;;2.07;1.33;;;24.20;46.50;;;;;;5026406;28;20221;-71
2023/08/27 06:49:24;;;;;;;1.17;1.10;;;24.20;46.50;;;;;;5026657;28;20231;-73
2023/08/27 06:51:50;;;;;;;1.17;1.07;;;24.20;46.50;;;;;;5031183;28;20237;-73
2023/08/27 06:54:15;;;;;;;1.33;1.23;;;24.20;46.50;;;;;;5028615;28;20230;-71
2023/08/27 06:56:41;;;;;;;1.40;1.30;;;24.20;46.40;;;;;;5034520;28;20830;-67
2023/08/27 06:59:07;;;;;;;1.60;1.50;;;24.20;46.30;;;;;;5027901;28;20221;-78
2023/08/27 07:01:32;;;;;;;1.40;1.30;;;24.20;46.30;;;;;;5026430;28;21252;-72
2023/08/27 07:03:58;;;;;;;1.40;1.30;;;24.20;46.40;;;;;;5030546;28;20253;-70
2023/08/27 07:06:24;;;;;;;1.40;1.30;;;24.20;46.40;;;;;;5024487;28;21163;-66
2023/08/27 07:08:49;;;;;;;1.57;1.47;;;24.20;46.40;;;;;;5031223;28;20214;-67
2023/08/27 07:11:16;;;;;;;1.30;1.20;;;24.20;46.40;;;;;;5019897;28;20310;-71
2023/08/27 07:13:42;;;;;;;1.30;1.20;;;24.20;46.40;;;;;;5025724;28;20218;-74
2023/08/27 07:16:07;;;;;;;1.53;1.43;;;24.10;46.30;;;;;;5021905;28;20466;-71
2023/08/27 07:18:33;;;;;;;1.50;1.40;;;24.10;46.30;;;;;;5029773;28;20218;-67
2023/08/27 07:20:58;;;;;;;1.40;1.30;;;24.20;46.40;;;;;;5028312;28;20325;-67
2023/08/27 07:23:25;;;;;;;1.50;1.40;;;24.10;46.20;;;;;;5027384;28;20225;-67
2023/08/27 07:25:51;;;;;;;1.00;1.00;;;24.10;46.30;;;;;;5026823;28;20253;-67
2023/08/27 07:28:16;;;;;;;1.97;1.30;;;24.10;46.30;;;;;;5023664;28;20958;-66
2023/08/27 07:30:42;;;;;;;1.50;1.40;;;24.10;46.30;;;;;;5024312;28;21164;-68
2023/08/27 07:33:08;;;;;;;1.40;1.30;;;24.20;46.40;;;;;;5026910;28;20711;-68
2023/08/27 07:35:34;;;;;;;1.20;1.10;;;24.20;46.50;;;;;;5028614;28;20786;-69
2023/08/27 07:37:59;;;;;;;1.30;1.20;;;24.10;46.50;;;;;;5030337;28;20458;-76
2023/08/27 07:40:25;;;;;;;1.30;1.20;;;24.10;46.40;;;;;;5028878;28;20226;-66
2023/08/27 07:42:51;;;;;;;1.50;1.40;;;24.10;46.50;;;;;;5028741;28;20242;-68
2023/08/27 07:45:16;;;;;;;1.40;1.30;;;24.10;46.50;;;;;;5028759;28;20218;-66
2023/08/27 07:47:42;;;;;;;1.80;1.30;;;24.20;46.50;;;;;;5027118;28;20231;-68
2023/08/27 07:50:08;;;;;;;1.20;1.10;;;24.10;46.50;;;;;;5030059;28;20395;-67
2023/08/27 07:52:33;;;;;;;1.60;1.40;;;24.10;46.40;;;;;;5019219;28;20873;-70
2023/08/27 07:54:59;;;;;;;1.33;1.23;;;24.10;46.30;;;;;;5015744;28;20234;-68
2023/08/27 07:57:25;;;;;;;1.30;1.20;;;24.10;46.30;;;;;;5015436;28;20226;-71
2023/08/27 07:59:51;;;;;;;1.13;1.03;;;24.10;46.30;;;;;;5018488;28;20230;-71
2023/08/27 08:02:18;;;;;;;2.60;1.20;;;24.10;46.30;;;;;;5019058;28;20609;-67
2023/08/27 08:04:43;;;;;;;3.13;1.30;;;24.10;46.20;;;;;;5014248;28;20455;-69
2023/08/27 08:07:09;;;;;;;1.23;1.10;;;24.10;46.10;;;;;;5015138;28;20632;-67
2023/08/27 08:09:35;;;;;;;1.30;1.20;;;24.10;46.20;;;;;;5016942;28;20233;-71
2023/08/27 08:12:00;;;;;;;1.40;1.30;;;24.10;47.00;;;;;;5014463;28;20611;-67
2023/08/27 08:14:26;;;;;;;1.43;1.33;;;24.10;47.70;;;;;;5016139;28;20249;-70
2023/08/27 08:16:53;;;;;;;1.40;1.30;;;24.10;47.80;;;;;;5018152;28;20235;-68
2023/08/27 08:19:19;;;;;;;1.20;1.10;;;24.10;48.30;;;;;;5015803;28;20321;-67
2023/08/27 08:21:45;;;;;;;1.47;1.37;;;24.10;46.80;;;;;;5023091;28;20955;-68
2023/08/27 08:24:10;;;;;;;1.20;1.10;;;24.10;47.10;;;;;;5026426;28;20462;-68
2023/08/27 08:26:36;;;;;;;1.30;1.20;;;24.10;46.10;;;;;;5026492;28;20226;-67
2023/08/27 08:29:02;;;;;;;1.30;1.20;;;24.10;46.00;;;;;;5026003;28;20269;-74
2023/08/27 08:31:28;;;;;;;1.20;1.10;;;24.10;45.90;;;;;;5026455;28;20226;-69
2023/08/27 08:33:53;;;;;;;1.20;1.10;;;24.10;46.00;;;;;;5023666;28;20456;-68
2023/08/27 08:36:19;;;;;;;1.13;1.03;;;24.10;45.70;;;;;;5029149;28;20237;-69
2023/08/27 08:38:44;;;;;;;1.40;1.30;;;24.10;47.60;;;;;;5023317;28;20222;-71
2023/08/27 08:41:14;;;;;;;1.30;1.20;;;24.10;48.50;;;;;;5024905;28;20228;-69
2023/08/27 08:43:47;;;;;;;1.30;1.20;;;24.10;48.70;;;;;;5024195;28;20310;-71
2023/08/27 08:46:15;;;;;;;1.47;1.37;;;24.10;50.40;;;;;;5024103;28;20546;-71
2023/08/27 08:48:42;;;;;;;2.40;1.10;;;24.10;48.40;;;;;;5027907;28;20478;-71
2023/08/27 08:51:12;;;;;;;1.27;1.17;;;24.10;51.60;;;;;;5028943;28;20571;-67
2023/08/27 08:53:42;;;;;;;1.00;1.00;;;24.10;53.10;;;;;;5025805;28;20463;-67
2023/08/27 08:56:19;;;;;;;3.00;1.10;;;24.10;45.70;;;;;;5024837;28;21179;-67
2023/08/27 08:58:51;;;;;;;1.40;1.30;;;24.10;45.70;;;;;;5024166;28;20452;-68
2023/08/27 09:01:19;;;;;;;1.20;1.10;;;24.10;45.80;;;;;;5024525;28;20995;-67
2023/08/27 09:03:46;;;;;;;2.00;1.00;;;24.10;45.70;;;;;;5025967;28;20521;-69
2023/08/27 09:06:12;;;;;;;1.27;1.17;;;24.10;45.60;;;;;;5027255;28;20471;-70
2023/08/27 09:08:38;;;;;;;1.00;0.90;;;24.10;45.60;;;;;;5030303;28;20455;-75
2023/08/27 09:11:04;;;;;;;1.30;1.20;;;24.10;45.50;;;;;;5027975;28;20231;-73
2023/08/27 09:13:30;;;;;;;1.00;1.00;;;24.10;45.30;;;;;;5030805;28;20451;-70
2023/08/27 09:15:55;;;;;;;1.53;1.20;;;24.10;45.30;;;;;;5026325;28;20237;-68
2023/08/27 09:18:21;;;;;;;4.80;1.50;;;24.10;45.30;;;;;;5034996;28;20454;-68
2023/08/27 09:20:47;;;;;;;2.47;1.20;;;24.00;45.80;;;;;;5027811;28;20227;-71
2023/08/27 09:23:13;;;;;;;3.77;1.60;;;24.10;46.30;;;;;;5030176;28;20291;-70
2023/08/27 09:25:39;;;;;;;1.30;1.20;;;24.10;46.60;;;;;;5030521;28;20825;-72
2023/08/27 09:28:06;;;;;;;1.30;1.20;;;24.10;47.50;;;;;;5032982;28;20254;-71
2023/08/27 09:30:32;;;;;;;2.83;1.37;;;24.10;48.30;;;;;;5034854;28;20548;-67
2023/08/27 09:32:58;;;;;;;1.83;1.30;;;24.10;49.20;;;;;;5030888;28;20455;-68
2023/08/27 09:35:36;;;;;;;4.33;1.50;;;24.00;50.90;;;;;;5031993;28;21143;-67
2023/08/27 09:38:02;;;;;;;2.70;1.00;;;24.00;50.30;;;;;;5031644;28;20271;-68
2023/08/27 09:40:28;;;;;;;1.00;0.90;;;24.10;49.30;;;;;;5031744;28;20466;-67
2023/08/27 09:43:11;;;;;;;1.37;1.27;;;24.10;50.30;;;;;;5032932;28;20211;-69
2023/08/27 09:45:38;;;;;;;1.67;1.23;;;24.10;51.90;;;;;;5029763;28;20261;-65
2023/08/27 09:48:04;;;;;;;1.30;1.20;;;24.10;53.70;;;;;;5029844;28;20450;-68
2023/08/27 09:50:31;;;;;;;2.13;1.30;;;24.10;54.50;;;;;;5032362;28;20959;-67
2023/08/27 09:53:12;;;;;;;1.30;1.20;;;24.10;51.50;;;;;;5029450;28;20443;-68
2023/08/27 09:55:39;;;;;;;1.30;1.20;;;24.10;49.40;;;;;;5027086;28;20466;-65
2023/08/27 09:58:05;;;;;;;1.50;1.10;;;24.10;48.90;;;;;;5019894;28;20560;-74
2023/08/27 10:00:32;;;;;;;4.70;1.83;;;24.10;48.30;;;;;;5006348;28;20498;-68
2023/08/27 10:02:57;;;;;;;2.30;1.50;;;24.10;48.30;;;;;;5006943;28;20550;-70
2023/08/27 10:05:41;;;;;;;2.40;1.40;;;24.10;48.20;;;;;;5012975;28;20584;-71
2023/08/27 10:08:07;;;;;;;2.50;1.40;;;24.10;48.20;;;;;;5018258;28;20233;-72
2023/08/27 10:10:34;;;;;;;1.33;1.23;;;24.10;48.30;;;;;;5018841;28;20451;-66
2023/08/27 10:13:01;;;;;;;1.90;1.47;;;24.10;48.30;;;;;;5017876;28;20249;-67
2023/08/27 10:15:27;;;;;;;1.40;1.20;;;24.10;48.30;;;;;;5019431;28;20479;-71
2023/08/27 10:17:56;;;;;;;1.27;1.17;;;24.10;48.30;;;;;;5016241;28;20480;-69
2023/08/27 10:20:22;;;;;;;1.80;1.13;;;24.10;48.30;;;;;;5018654;28;20478;-69
2023/08/27 10:22:48;;;;;;;3.47;1.63;;;24.20;48.30;;;;;;5018395;28;20483;-71
2023/08/27 10:25:17;;;;;;;1.77;1.27;;;24.20;48.30;;;;;;5021920;28;20288;-69
2023/08/27 10:27:45;;;;;;;1.20;1.10;;;24.20;48.30;;;;;;5020088;28;20853;-68
2023/08/27 10:30:12;;;;;;;1.20;1.10;;;24.20;48.40;;;;;;5022635;28;20514;-72
2023/08/27 10:32:38;;;;;;;1.10;1.00;;;24.20;48.40;;;;;;5019267;28;20459;-66
2023/08/27 10:35:05;;;;;;;3.60;1.10;;;24.20;48.40;;;;;;5017458;28;20690;-71
2023/08/27 10:37:32;;;;;;;1.30;1.10;;;24.20;48.40;;;;;;5020873;28;20914;-69
2023/08/27 10:40:00;;;;;;;3.80;1.10;;;24.20;48.90;;;;;;5019698;28;20897;-69
2023/08/27 10:42:33;;;;;;;1.30;1.20;;;24.20;48.70;;;;;;5018703;28;20455;-71
2023/08/27 10:45:21;;;;;;;1.70;1.60;;;24.20;49.80;;;;;;5017471;28;20463;-67
2023/08/27 10:48:18;;;;;;;1.20;1.10;;;24.20;49.50;;;;;;5017700;28;20453;-67
2023/08/27 10:50:48;;;;;;;1.37;1.10;;;24.20;49.70;;;;;;5017955;28;20459;-69
2023/08/27 10:53:15;;;;;;;3.10;1.13;;;24.20;49.60;;;;;;5019950;28;20470;-66
2023/08/27 10:55:48;;;;;;;2.20;1.30;;;24.20;48.40;;;;;;5019950;28;20486;-67
2023/08/27 10:58:23;;;;;;;1.20;1.10;;;24.20;48.80;;;;;;5016931;28;22352;-72
2023/08/27 11:01:13;;;;;;;1.10;1.00;;;24.20;48.40;;;;;;5018608;28;20962;-67
2023/08/27 11:03:59;;;;;;;1.10;1.00;;;24.20;48.60;;;;;;5018911;28;20468;-66
2023/08/27 11:06:46;;;;;;;1.30;1.20;;;24.20;48.80;;;;;;5020421;28;21070;-67
2023/08/27 11:09:23;;;;;;;1.93;1.83;;;24.20;49.20;;;;;;5018177;28;20554;-68
2023/08/27 11:11:53;;;;;;;1.07;1.03;;;24.20;49.00;;;;;;5020117;28;20626;-68
2023/08/27 11:14:21;;;;;;;1.30;1.20;;;24.20;49.50;;;;;;5018175;28;21077;-67
2023/08/27 11:16:54;;;;;;;1.93;1.00;;;24.20;49.40;;;;;;5018081;28;21072;-66
2023/08/27 11:19:36;;;;;;;1.23;1.13;;;24.20;49.20;;;;;;5020343;28;20513;-69
2023/08/27 11:22:18;;;;;;;1.23;1.10;;;24.20;49.50;;;;;;5020813;28;21002;-66
2023/08/27 11:24:53;;;;;;;1.10;1.00;;;24.20;49.60;;;;;;5019686;28;20494;-68
2023/08/27 11:27:20;;;;;;;1.80;1.20;;;24.20;48.20;;;;;;5017559;28;20464;-67
2023/08/27 11:29:51;;;;;;;1.17;1.07;;;24.30;48.40;;;;;;5020074;28;21835;-69
2023/08/27 11:32:17;;;;;;;1.00;1.00;;;24.30;48.50;;;;;;5021721;28;20463;-70
2023/08/27 11:34:48;;;;;;;1.23;1.10;;;24.30;48.50;;;;;;5019635;28;20468;-67
2023/08/27 11:37:14;;;;;;;1.10;1.00;;;24.30;48.50;;;;;;5019115;28;20316;-72
2023/08/27 11:39:40;;;;;;;1.37;1.27;;;24.30;49.50;;;;;;5022304;28;20562;-67
2023/08/27 11:42:11;;;;;;;1.30;1.20;;;24.30;48.60;;;;;;5019787;28;20222;-72
2023/08/27 11:44:57;;;;;;;1.30;1.20;;;24.30;48.60;;;;;;5018791;28;20550;-70
2023/08/27 11:47:23;;;;;;;1.60;1.20;;;24.30;48.50;;;;;;5018446;28;20478;-66
2023/08/27 11:49:57;;;;;;;1.23;1.13;;;24.30;48.80;;;;;;5022201;28;20471;-71
2023/08/27 11:52:22;;;;;;;1.30;1.20;;;24.30;49.60;;;;;;5017361;28;20809;-66
2023/08/27 11:54:49;;;;;;;1.23;1.13;;;24.30;50.50;;;;;;5018943;28;20456;-71
2023/08/27 11:57:18;;;;;;;1.27;1.17;;;24.30;50.70;;;;;;5017621;28;20248;-67
2023/08/27 11:59:48;;;;;;;1.97;1.20;;;24.30;51.00;;;;;;5019411;28;20543;-65
2023/08/27 12:02:13;;;;;;;1.10;1.00;;;24.30;47.60;;;;;;5021437;28;20460;-69
2023/08/27 12:04:41;;;;;;;1.40;1.17;;;24.30;46.50;;;;;;5017351;28;21628;-69
2023/08/27 12:07:07;;;;;;;1.27;1.17;;;24.30;45.90;;;;;;5019621;28;20236;-69
2023/08/27 12:09:33;;;;;;;3.33;1.30;;;24.30;45.90;;;;;;5017193;28;20455;-66
2023/08/27 12:12:04;;;;;;;1.30;1.20;;;24.30;45.80;;;;;;5020055;28;20731;-66
2023/08/27 12:14:30;;;;;;;1.10;1.00;;;24.30;45.90;;;;;;5016960;28;20463;-70
2023/08/27 12:17:07;;;;;;;1.20;1.10;;;24.30;45.80;;;;;;5016985;28;20537;-66
2023/08/27 12:19:35;;;;;;;1.17;1.07;;;24.30;45.90;;;;;;5019283;28;20234;-72
2023/08/27 12:22:00;;;;;;;1.10;1.00;;;24.30;45.90;;;;;;5014773;28;20788;-71
2023/08/27 12:24:42;;;;;;;2.03;1.10;;;24.30;45.80;;;;;;5018650;28;21069;-65
2023/08/27 12:27:09;;;;;;;1.20;1.00;;;24.30;45.70;;;;;;5018455;28;20218;-66
2023/08/27 12:29:40;;;;;;;1.00;1.00;;;24.30;45.70;;;;;;5017241;28;20470;-67
2023/08/27 12:32:13;;;;;;;1.10;1.00;;;24.30;45.70;;;;;;5018500;28;20451;-67
2023/08/27 12:34:41;;;;;;;1.30;1.20;;;24.30;45.80;;;;;;5018546;28;20479;-70
2023/08/27 12:37:09;;;;;;;0.90;0.90;;;24.30;45.80;;;;;;5016597;28;20475;-68
2023/08/27 12:39:38;;;;;;;1.20;1.10;;;24.30;45.80;;;;;;5018500;28;21260;-71
2023/08/27 12:42:04;;;;;;;1.20;1.10;;;24.30;45.80;;;;;;5018320;28;20441;-66
2023/08/27 12:44:30;;;;;;;1.10;1.00;;;24.30;45.80;;;;;;5019723;28;20467;-70
2023/08/27 12:46:56;;;;;;;1.10;1.00;;;24.30;45.90;;;;;;5019261;28;20514;-68
2023/08/27 12:49:22;;;;;;;1.20;1.10;;;24.30;45.80;;;;;;5017634;28;20482;-68